Time;durP1;ratioP1;P1;durP2;ratioP2;P2;SDS_P1;SDS_P2;PMS_P1;PMS_P2;Temp;Humidity;BMP_temperature;BMP_pressure;BME280_temperature;BME280_humidity;BME280_pressure;Samples;Min_cycle;Max_cycle;Signal;HPM_P1;HPM_P2
2022/02/22 00:00:09;;;;;;;0.10;0.10;;;;;;;8.75;59.26;101845.47;5051576;28;20029;-85
2022/02/22 00:02:35;;;;;;;1.52;1.27;;;;;;;8.79;59.30;101849.03;5060622;28;20059;-83
2022/02/22 00:05:02;;;;;;;0.50;0.50;;;;;;;8.66;59.98;101851.63;5050920;28;20053;-83
2022/02/22 00:07:29;;;;;;;0.10;0.10;;;;;;;8.63;59.86;101851.59;5069338;28;20550;-82
2022/02/22 00:09:56;;;;;;;0.10;0.10;;;;;;;8.69;59.78;101856.91;5059603;28;20060;-83
2022/02/22 00:12:23;;;;;;;0.60;0.60;;;;;;;8.74;59.93;101849.88;5060651;28;20479;-83
2022/02/22 00:14:49;;;;;;;0.10;0.10;;;;;;;8.72;60.18;101856.91;5050700;28;20159;-82
2022/02/22 00:17:16;;;;;;;0.20;0.20;;;;;;;8.65;60.12;101868.34;5046135;28;20029;-82
2022/02/22 00:19:42;;;;;;;0.10;0.10;;;;;;;8.64;60.18;101877.13;5039385;28;20036;-81
2022/02/22 00:22:08;;;;;;;0.65;0.65;;;;;;;8.59;60.41;101878.88;5045393;28;20487;-82
2022/02/22 00:24:35;;;;;;;0.10;0.10;;;;;;;8.68;60.28;101886.81;5035030;28;20075;-81
2022/02/22 00:27:01;;;;;;;0.10;0.10;;;;;;;8.70;60.42;101874.50;5040439;28;20365;-80
2022/02/22 00:29:27;;;;;;;17.25;1.40;;;;;;;8.69;60.58;101885.09;5036738;28;20043;-81
2022/02/22 00:31:53;;;;;;;1.88;0.52;;;;;;;8.68;60.90;101894.75;5043981;28;20476;-82
2022/02/22 00:34:19;;;;;;;0.10;0.10;;;;;;;8.62;60.92;101910.56;5052548;28;20037;-81
2022/02/22 00:36:46;;;;;;;0.17;0.17;;;;;;;8.60;60.99;101909.69;5050657;28;20037;-86
2022/02/22 00:39:12;;;;;;;1.27;1.25;;;;;;;8.61;61.21;101910.56;5048545;28;20488;-80
2022/02/22 00:41:38;;;;;;;0.10;0.10;;;;;;;8.58;61.63;101922.00;5047873;28;20045;-82
2022/02/22 00:44:06;;;;;;;0.10;0.10;;;;;;;8.61;60.99;101910.56;5045818;28;20037;-82
2022/02/22 00:46:33;;;;;;;1.08;1.08;;;;;;;8.52;61.25;101914.94;5045488;28;20044;-82
2022/02/22 00:49:00;;;;;;;0.10;0.10;;;;;;;8.61;60.89;101918.50;5045211;28;20036;-82
2022/02/22 00:51:26;;;;;;;0.10;0.10;;;;;;;8.56;61.43;101913.19;5050560;28;20144;-82
2022/02/22 00:53:52;;;;;;;0.10;0.10;;;;;;;8.57;61.08;101914.94;5052512;28;20078;-82
2022/02/22 00:56:19;;;;;;;0.20;0.20;;;;;;;8.61;60.98;101907.94;5051826;28;20068;-82
2022/02/22 00:58:45;;;;;;;0.45;0.45;;;;;;;8.59;60.74;101907.94;5039965;28;20031;-81
2022/02/22 01:01:14;;;;;;;0.10;0.10;;;;;;;8.57;60.88;101905.28;5044779;28;20036;-82
2022/02/22 01:03:41;;;;;;;2.88;2.60;;;;;;;8.57;61.54;101910.56;5053422;28;20067;-83
2022/02/22 01:06:07;;;;;;;0.10;0.10;;;;;;;8.57;61.36;101923.78;5052078;28;20029;-82
2022/02/22 01:08:36;;;;;;;3.58;3.25;;;;;;;8.60;60.78;101930.84;5044834;28;20025;-84
2022/02/22 01:11:03;;;;;;;0.75;0.75;;;;;;;8.52;61.78;101929.91;5038032;28;20497;-82
2022/02/22 01:13:29;;;;;;;0.10;0.10;;;;;;;8.55;61.69;101928.16;5046387;28;20502;-82
2022/02/22 01:15:55;;;;;;;0.10;0.10;;;;;;;8.54;61.81;101930.81;5054278;28;20025;-81
2022/02/22 01:18:22;;;;;;;0.20;0.20;;;;;;;8.45;61.95;101925.41;5045788;28;20030;-82
2022/02/22 01:20:49;;;;;;;0.10;0.10;;;;;;;8.60;61.31;101922.91;5050014;28;20032;-81
2022/02/22 01:23:15;;;;;;;0.10;0.10;;;;;;;8.50;61.77;101913.16;5050419;28;20144;-81
2022/02/22 01:25:43;;;;;;;0.10;0.10;;;;;;;8.52;61.18;101927.25;5045658;28;20021;-82
2022/02/22 01:28:09;;;;;;;0.10;0.10;;;;;;;8.47;61.47;101934.28;5053622;28;20029;-81
2022/02/22 01:30:38;;;;;;;0.10;0.10;;;;;;;8.41;62.05;101945.63;5049011;28;20037;-82
2022/02/22 01:33:04;;;;;;;0.10;0.10;;;;;;;8.42;61.66;101943.03;5045996;28;20473;-82
2022/02/22 01:35:30;;;;;;;0.10;0.10;;;;;;;8.44;61.53;101948.31;5047494;28;20051;-83
2022/02/22 01:37:56;;;;;;;0.10;0.10;;;;;;;8.42;61.55;101957.97;5041646;28;20037;-83
2022/02/22 01:40:26;;;;;;;0.28;0.28;;;;;;;8.43;61.26;101944.78;5035681;28;20117;-83
2022/02/22 01:42:53;;;;;;;0.10;0.10;;;;;;;8.42;61.85;101948.31;5045240;28;20033;-83
2022/02/22 01:45:22;;;;;;;0.10;0.10;;;;;;;8.38;61.70;101932.44;5050273;28;20036;-83
2022/02/22 01:47:49;;;;;;;0.10;0.10;;;;;;;8.35;61.76;101932.38;5035962;28;21970;-82
2022/02/22 01:50:16;;;;;;;1.65;1.55;;;;;;;8.41;61.98;101941.25;5047353;28;20021;-83
2022/02/22 01:52:42;;;;;;;0.05;0.05;;;;;;;8.44;61.56;101937.75;5036827;28;20030;-82
2022/02/22 01:55:09;;;;;;;0.10;0.10;;;;;;;8.42;61.94;101942.13;5044155;28;20057;-82
2022/02/22 01:57:36;;;;;;;0.10;0.10;;;;;;;8.36;61.27;101945.63;5050208;28;20057;-82
2022/02/22 02:00:07;;;;;;;0.05;0.05;;;;;;;8.31;62.24;101942.06;5043682;28;20423;-82
2022/02/22 02:02:33;;;;;;;0.10;0.10;;;;;;;8.30;61.60;101948.22;5044145;28;20083;-82
2022/02/22 02:04:59;;;;;;;0.10;0.10;;;;;;;8.33;61.29;101948.22;5064692;28;20028;-82
2022/02/22 02:07:25;;;;;;;0.10;0.10;;;;;;;8.22;62.04;101942.00;5047277;28;20029;-83
2022/02/22 02:09:52;;;;;;;0.10;0.10;;;;;;;8.29;62.04;101957.00;5042964;28;20029;-82
2022/02/22 02:12:18;;;;;;;0.10;0.10;;;;;;;8.26;61.68;101951.69;5041136;28;20075;-83
2022/02/22 02:14:44;;;;;;;0.10;0.10;;;;;;;8.21;61.64;101958.69;5036145;28;20455;-84
2022/02/22 02:17:10;;;;;;;0.10;0.10;;;;;;;8.24;62.35;101951.69;5041549;28;20029;-82
2022/02/22 02:19:39;;;;;;;0.10;0.10;;;;;;;8.22;61.75;101953.44;5043639;28;20033;-84
2022/02/22 02:22:05;;;;;;;0.20;0.20;;;;;;;8.31;62.22;101962.28;5045440;28;20443;-82
2022/02/22 02:24:31;;;;;;;0.10;0.10;;;;;;;8.30;61.48;101964.06;5037037;28;20083;-83
2022/02/22 02:26:58;;;;;;;0.10;0.10;;;;;;;8.27;61.37;101942.91;5049876;28;20028;-82
2022/02/22 02:29:27;;;;;;;0.10;0.10;;;;;;;8.30;61.80;101937.66;5043845;28;20531;-82
2022/02/22 02:31:55;;;;;;;0.10;0.10;;;;;;;8.33;61.44;101936.78;5036134;28;20041;-81
2022/02/22 02:34:24;;;;;;;0.10;0.10;;;;;;;8.30;61.32;101942.94;5045156;28;20395;-82
2022/02/22 02:36:51;;;;;;;0.10;0.10;;;;;;;8.26;61.55;101938.50;5040325;28;20037;-82
2022/02/22 02:39:29;;;;;;;0.10;0.10;;;;;;;8.35;61.77;101945.59;5047932;28;20025;-84
2022/02/22 02:42:01;;;;;;;0.10;0.10;;;;;;;8.33;61.05;101945.59;5035351;28;20437;-82
2022/02/22 02:44:28;;;;;;;0.20;0.20;;;;;;;8.28;61.36;101936.75;5026158;28;20055;-84
2022/02/22 02:46:54;;;;;;;0.10;0.10;;;;;;;8.26;61.88;101936.75;5050600;22;20457;-78
2022/02/22 02:49:21;;;;;;;0.10;0.10;;;;;;;8.20;62.19;101943.72;5033679;28;20225;-81
2022/02/22 02:51:47;;;;;;;0.10;0.10;;;;;;;8.15;61.90;101934.88;5033473;28;20029;-84
2022/02/22 02:54:14;;;;;;;0.00;0.00;;;;;;;8.21;62.10;101932.28;5034143;28;20025;-82
2022/02/22 02:56:51;;;;;;;0.10;0.10;;;;;;;8.19;61.81;101945.50;5033998;28;20380;-83
2022/02/22 02:59:17;;;;;;;0.10;0.10;;;;;;;8.14;62.62;101930.47;5015490;28;20037;-84
2022/02/22 03:01:43;;;;;;;0.00;0.00;;;;;;;8.17;62.07;101935.78;5034003;28;20357;-83
2022/02/22 03:04:11;;;;;;;0.50;0.28;;;;;;;8.19;62.44;101928.78;5034259;28;20033;-82
2022/02/22 03:06:37;;;;;;;0.63;0.63;;;;;;;8.17;61.91;101930.50;5034621;28;20457;-84
2022/02/22 03:09:04;;;;;;;0.10;0.10;;;;;;;8.22;61.83;101944.63;5033309;28;20026;-84
2022/02/22 03:11:32;;;;;;;0.17;0.17;;;;;;;8.14;62.04;101941.94;5033567;28;20026;-85
2022/02/22 03:13:58;;;;;;;0.10;0.10;;;;;;;8.21;62.34;101958.69;5034271;28;20148;-86
2022/02/22 03:16:25;;;;;;;0.10;0.10;;;;;;;8.20;61.81;101957.81;5033303;28;20022;-86
2022/02/22 03:18:51;;;;;;;0.10;0.10;;;;;;;8.23;62.02;101954.31;5033802;28;20038;-85
2022/02/22 03:21:18;;;;;;;0.10;0.10;;;;;;;8.22;62.10;101956.09;5033347;28;20033;-85
2022/02/22 03:23:44;;;;;;;0.00;0.00;;;;;;;8.19;62.12;101948.13;5033812;28;20038;-85
2022/02/22 03:26:10;;;;;;;1.17;1.17;;;;;;;8.16;62.55;101952.50;5033679;28;20065;-84
2022/02/22 03:28:37;;;;;;;0.10;0.10;;;;;;;8.17;61.79;101954.28;5034003;28;20025;-83
2022/02/22 03:31:04;;;;;;;0.20;0.20;;;;;;;8.17;61.93;101947.22;5033756;28;20036;-83
2022/02/22 03:33:31;;;;;;;0.10;0.10;;;;;;;8.13;61.83;101955.13;5033242;28;20038;-84
2022/02/22 03:35:58;;;;;;;0.10;0.10;;;;;;;8.13;61.88;101948.09;5033224;28;20037;-83
2022/02/22 03:38:25;;;;;;;0.10;0.10;;;;;;;8.08;62.82;101953.31;5034437;28;20076;-86
2022/02/22 03:40:51;;;;;;;0.20;0.20;;;;;;;8.12;62.57;101937.53;5033651;28;20459;-83
2022/02/22 03:43:18;;;;;;;0.10;0.10;;;;;;;8.05;61.79;101937.47;5014889;28;20116;-86
2022/02/22 03:45:44;;;;;;;0.10;0.10;;;;;;;8.00;62.59;101933.91;5033142;28;20029;-85
2022/02/22 03:48:10;;;;;;;0.10;0.10;;;;;;;7.95;62.82;101935.63;5035514;28;20567;-79
2022/02/22 03:50:37;;;;;;;0.10;0.10;;;;;;;7.97;62.25;101939.16;5037298;28;20416;-85
2022/02/22 03:53:03;;;;;;;0.10;0.10;;;;;;;7.98;62.23;101938.28;5036629;28;20064;-84
2022/02/22 03:55:29;;;;;;;0.10;0.10;;;;;;;7.93;62.63;101947.91;5036689;28;20030;-85
2022/02/22 03:57:56;;;;;;;0.10;0.10;;;;;;;7.88;63.00;101947.88;5037019;28;20504;-85
2022/02/22 04:00:25;;;;;;;0.28;0.28;;;;;;;7.91;62.46;101950.56;5037032;28;20041;-85
2022/02/22 04:02:51;;;;;;;0.10;0.10;;;;;;;7.84;62.44;101954.00;5037664;28;20216;-85
2022/02/22 04:05:20;;;;;;;0.10;0.10;;;;;;;7.81;62.89;101966.28;5037388;28;20469;-84
2022/02/22 04:07:48;;;;;;;0.10;0.10;;;;;;;7.80;62.08;101953.94;5036501;28;20071;-86
2022/02/22 04:10:14;;;;;;;0.10;0.10;;;;;;;7.77;62.48;101963.59;5036590;28;20033;-85
2022/02/22 04:12:41;;;;;;;0.00;0.00;;;;;;;7.74;62.74;101960.94;5037740;28;20037;-83
2022/02/22 04:15:09;;;;;;;0.10;0.10;;;;;;;7.70;63.35;101969.72;5037356;28;20045;-85
2022/02/22 04:17:35;;;;;;;0.10;0.10;;;;;;;7.63;62.65;101970.50;5037287;28;20028;-85
2022/02/22 04:20:02;;;;;;;0.10;0.10;;;;;;;7.58;63.48;101973.09;5037050;28;20030;-85
2022/02/22 04:22:28;;;;;;;0.10;0.10;;;;;;;7.56;64.16;101973.94;5037045;28;20041;-81
2022/02/22 04:24:54;;;;;;;0.35;0.35;;;;;;;7.55;63.28;101966.88;5037275;28;20040;-85
2022/02/22 04:27:20;;;;;;;0.20;0.20;;;;;;;7.57;63.55;101962.53;5036866;28;20026;-85
2022/02/22 04:29:46;;;;;;;0.17;0.17;;;;;;;7.55;62.86;101966.88;5036230;28;20457;-82
2022/02/22 04:32:12;;;;;;;0.10;0.10;;;;;;;7.53;63.85;101973.94;5035643;28;20033;-85
2022/02/22 04:34:39;;;;;;;0.10;0.10;;;;;;;7.51;63.09;101971.25;5036170;28;20055;-85
2022/02/22 04:37:05;;;;;;;0.82;0.82;;;;;;;7.44;64.08;101965.03;5036663;28;20034;-83
2022/02/22 04:39:31;;;;;;;0.10;0.10;;;;;;;7.46;63.73;101962.41;5037059;28;20104;-85
2022/02/22 04:41:58;;;;;;;0.10;0.10;;;;;;;7.50;64.29;101958.06;5036194;28;20026;-85
2022/02/22 04:44:24;;;;;;;0.10;0.10;;;;;;;7.48;64.25;101951.88;5036744;28;20034;-84
2022/02/22 04:46:50;;;;;;;0.10;0.10;;;;;;;7.50;63.78;101955.41;5035477;28;20479;-83
2022/02/22 04:49:16;;;;;;;0.10;0.10;;;;;;;7.43;64.45;101955.34;5036442;28;20461;-85
2022/02/22 04:51:44;;;;;;;0.20;0.20;;;;;;;7.43;64.30;101963.25;5036073;28;20067;-83
2022/02/22 04:54:11;;;;;;;0.10;0.10;;;;;;;7.42;64.32;101963.25;5035926;28;20104;-86
2022/02/22 04:56:37;;;;;;;0.10;0.10;;;;;;;7.39;64.57;101963.19;5035729;28;20109;-84
2022/02/22 04:59:03;;;;;;;0.10;0.10;;;;;;;7.44;63.63;101962.41;5035491;28;20036;-80
2022/02/22 05:01:29;;;;;;;0.10;0.10;;;;;;;7.42;64.39;101958.84;5036425;28;20041;-81
2022/02/22 05:03:56;;;;;;;0.20;0.20;;;;;;;7.40;64.49;101967.59;5036845;28;20041;-83
2022/02/22 05:06:22;;;;;;;0.10;0.10;;;;;;;7.38;65.13;101964.97;5036495;28;20083;-85
2022/02/22 05:08:48;;;;;;;0.10;0.10;;;;;;;7.40;64.56;101964.97;5036021;28;20381;-85
2022/02/22 05:11:19;;;;;;;0.10;0.10;;;;;;;7.45;64.92;101971.19;5036920;28;20030;-79
2022/02/22 05:13:45;;;;;;;0.10;0.10;;;;;;;7.45;64.14;101966.81;5035551;28;20071;-81
2022/02/22 05:16:12;;;;;;;0.10;0.10;;;;;;;7.42;64.96;101953.56;5035458;28;20029;-80
2022/02/22 05:18:38;;;;;;;0.10;0.10;;;;;;;7.48;64.63;101960.69;5035561;28;20104;-84
2022/02/22 05:21:04;;;;;;;0.10;0.10;;;;;;;7.47;65.35;101958.03;5035050;28;20116;-85
2022/02/22 05:23:33;;;;;;;0.10;0.10;;;;;;;7.55;64.96;101961.63;5036044;28;20063;-80
2022/02/22 05:26:00;;;;;;;3.53;1.55;;;;;;;7.67;65.07;101940.63;5035223;28;20037;-84
2022/02/22 05:28:27;;;;;;;0.20;0.20;;;;;;;7.72;64.38;101944.19;5036036;28;20041;-85
2022/02/22 05:30:54;;;;;;;0.10;0.10;;;;;;;7.78;64.13;101949.53;5035671;28;20025;-86
2022/02/22 05:33:21;;;;;;;0.10;0.10;;;;;;;7.78;65.24;101938.97;5035728;28;20508;-82
2022/02/22 05:35:49;;;;;;;0.10;0.10;;;;;;;7.87;65.12;101937.31;5034745;28;20036;-84
2022/02/22 05:38:16;;;;;;;0.20;0.20;;;;;;;7.91;65.21;101947.00;5036020;28;20037;-84
2022/02/22 05:40:42;;;;;;;0.10;0.10;;;;;;;7.91;64.67;101939.09;5035480;28;20036;-86
2022/02/22 05:43:08;;;;;;;0.10;0.10;;;;;;;7.91;63.96;101939.09;5035752;28;20097;-86
2022/02/22 05:45:36;;;;;;;0.10;0.10;;;;;;;7.91;64.61;101941.75;5035789;28;20416;-85
2022/02/22 05:48:03;;;;;;;0.10;0.10;;;;;;;7.86;63.79;101943.47;5035726;28;20104;-85
2022/02/22 05:50:30;;;;;;;0.10;0.10;;;;;;;7.81;63.72;101942.53;5035751;28;20033;-83
2022/02/22 05:52:57;;;;;;;0.30;0.30;;;;;;;7.72;64.15;101933.66;5034438;28;20022;-85
2022/02/22 05:55:25;;;;;;;0.10;0.10;;;;;;;7.68;63.55;101941.53;5034829;28;20492;-82
2022/02/22 05:57:52;;;;;;;0.10;0.10;;;;;;;7.57;63.80;101933.50;5034935;28;20029;-84
2022/02/22 06:00:19;;;;;;;0.13;0.13;;;;;;;7.50;63.34;101936.94;5034768;28;20036;-83
2022/02/22 06:02:46;;;;;;;0.35;0.35;;;;;;;7.38;63.86;101928.06;5034406;28;20033;-82
2022/02/22 06:05:12;;;;;;;0.10;0.10;;;;;;;7.32;63.53;101925.34;5034003;28;20033;-84
2022/02/22 06:07:39;;;;;;;0.10;0.10;;;;;;;7.23;63.66;101927.91;5017306;28;20030;-80
2022/02/22 06:10:06;;;;;;;0.20;0.20;;;;;;;7.18;64.00;101926.94;5034427;28;20025;-85
2022/02/22 06:12:33;;;;;;;0.20;0.20;;;;;;;7.06;64.31;101920.66;5034215;28;20098;-86
2022/02/22 06:14:59;;;;;;;1.38;1.30;;;;;;;6.97;64.75;101925.81;5034259;28;20598;-82
2022/02/22 06:17:25;;;;;;;0.10;0.10;;;;;;;6.93;65.36;101913.50;5034451;28;20032;-85
2022/02/22 06:19:52;;;;;;;0.10;0.10;;;;;;;6.88;65.63;101909.88;5034970;28;20038;-84
2022/02/22 06:22:18;;;;;;;0.10;0.10;;;;;;;6.88;65.51;101912.53;5035623;28;20040;-84
2022/02/22 06:24:44;;;;;;;0.03;0.03;;;;;;;6.83;65.89;101908.94;5035599;28;20358;-84
2022/02/22 06:27:10;;;;;;;0.00;0.00;;;;;;;6.78;65.50;101909.78;5034351;28;20030;-82
2022/02/22 06:29:37;;;;;;;0.10;0.10;;;;;;;6.81;65.62;101914.22;5034579;28;20092;-83
2022/02/22 06:32:03;;;;;;;1.38;1.38;;;;;;;6.79;65.43;101919.47;5034277;28;20025;-85
2022/02/22 06:34:30;;;;;;;0.10;0.10;;;;;;;6.73;66.00;101916.75;5034835;28;20037;-85
2022/02/22 06:36:56;;;;;;;0.10;0.10;;;;;;;6.70;66.59;101916.69;5035430;28;20083;-84
2022/02/22 06:39:22;;;;;;;0.10;0.10;;;;;;;6.74;65.23;101907.97;5034314;28;20053;-84
2022/02/22 06:41:48;;;;;;;0.10;0.10;;;;;;;6.77;66.43;101901.88;5033626;28;20087;-80
2022/02/22 06:44:15;;;;;;;0.00;0.00;;;;;;;6.79;66.24;101902.75;5035503;28;20041;-83
2022/02/22 06:46:41;;;;;;;0.10;0.10;;;;;;;6.78;66.95;101907.16;5034396;28;20550;-81
2022/02/22 06:49:07;;;;;;;0.10;0.10;;;;;;;6.89;67.05;101912.56;5035345;28;20033;-81
2022/02/22 06:51:33;;;;;;;0.68;0.68;;;;;;;6.95;67.17;101906.47;5034527;28;20030;-85
2022/02/22 06:53:59;;;;;;;0.10;0.10;;;;;;;7.02;66.97;101904.81;5035439;28;20029;-83
2022/02/22 06:56:26;;;;;;;0.10;0.10;;;;;;;7.11;66.59;101905.78;5034730;28;20431;-84
2022/02/22 06:58:52;;;;;;;0.10;0.10;;;;;;;7.15;67.07;101904.06;5035351;28;20032;-84
2022/02/22 07:01:18;;;;;;;0.10;0.10;;;;;;;7.21;66.88;101904.13;5034319;28;20084;-84
2022/02/22 07:03:44;;;;;;;0.10;0.10;;;;;;;7.36;66.81;101908.69;5034203;28;20069;-80
2022/02/22 07:06:10;;;;;;;0.10;0.10;;;;;;;7.43;66.81;101897.34;5034587;28;20036;-83
2022/02/22 07:08:36;;;;;;;0.10;0.10;;;;;;;7.51;66.56;101894.75;5034073;28;20029;-82
2022/02/22 07:11:02;;;;;;;0.20;0.20;;;;;;;7.61;66.41;101906.28;5033471;28;20119;-84
2022/02/22 07:13:28;;;;;;;0.10;0.10;;;;;;;7.63;66.81;101907.19;5033904;28;20057;-83
2022/02/22 07:15:54;;;;;;;0.82;0.82;;;;;;;7.72;66.34;101898.50;5034308;28;20419;-84
2022/02/22 07:18:21;;;;;;;0.25;0.25;;;;;;;7.75;67.01;101896.75;5034549;28;20029;-83
2022/02/22 07:20:47;;;;;;;0.10;0.10;;;;;;;7.85;66.94;101888.91;5034967;28;20029;-83
2022/02/22 07:23:13;;;;;;;0.10;0.10;;;;;;;7.86;67.26;101877.50;5034451;28;20472;-84
2022/02/22 07:25:39;;;;;;;0.10;0.10;;;;;;;7.98;67.19;101871.44;5020078;28;20038;-83
2022/02/22 07:28:05;;;;;;;0.10;0.10;;;;;;;7.97;67.05;101875.81;5021103;28;20469;-83
2022/02/22 07:30:31;;;;;;;0.00;0.00;;;;;;;8.01;66.88;101867.06;5038907;28;20033;-82
2022/02/22 07:33:00;;;;;;;0.00;0.00;;;;;;;8.14;66.55;101856.56;5037592;28;20030;-84
2022/02/22 07:35:27;;;;;;;0.08;0.08;;;;;;;8.24;67.01;101853.13;5038187;28;20033;-83
2022/02/22 07:37:53;;;;;;;0.10;0.10;;;;;;;8.30;66.84;101852.25;5038666;28;20052;-84
2022/02/22 07:40:21;;;;;;;0.00;0.00;;;;;;;8.32;66.83;101846.13;5037541;28;20120;-84
2022/02/22 07:42:47;;;;;;;0.10;0.10;;;;;;;8.36;67.08;101842.63;5037402;28;20041;-84
2022/02/22 07:45:14;;;;;;;0.10;0.10;;;;;;;8.38;67.55;101843.50;5038065;28;20036;-83
2022/02/22 07:47:42;;;;;;;0.00;0.00;;;;;;;8.42;66.94;101840.03;5037687;28;20024;-83
2022/02/22 07:50:09;;;;;;;1.40;1.30;;;;;;;8.51;66.76;101843.59;5037105;28;20108;-83
2022/02/22 07:52:36;;;;;;;0.00;0.00;;;;;;;8.58;66.45;101842.75;5037615;28;20033;-84
2022/02/22 07:55:04;;;;;;;0.10;0.10;;;;;;;8.70;66.92;101842.81;5037910;28;20116;-84
2022/02/22 07:57:31;;;;;;;13.20;0.55;;;;;;;8.79;66.50;101841.09;5036650;28;20030;-84
2022/02/22 07:59:57;;;;;;;0.00;0.00;;;;;;;8.80;66.71;101837.53;5036941;28;20021;-84
2022/02/22 08:02:24;;;;;;;0.20;0.20;;;;;;;8.92;66.69;101842.88;5036496;28;20472;-83
2022/02/22 08:04:50;;;;;;;0.15;0.15;;;;;;;8.89;66.35;101842.88;5037477;28;20074;-84
2022/02/22 08:07:20;;;;;;;0.52;0.52;;;;;;;8.84;66.48;101832.28;5037932;28;20037;-85
2022/02/22 08:09:46;;;;;;;0.10;0.10;;;;;;;9.00;66.23;101827.06;5036079;28;20026;-85
2022/02/22 08:12:12;;;;;;;0.10;0.10;;;;;;;9.01;66.66;101834.97;5036995;28;20115;-84
2022/02/22 08:14:38;;;;;;;1.58;1.58;;;;;;;9.07;66.33;101827.06;5046349;28;20167;-84
2022/02/22 08:17:05;;;;;;;0.00;0.00;;;;;;;9.16;66.28;101825.31;5052912;28;20158;-86
2022/02/22 08:19:31;;;;;;;0.10;0.10;;;;;;;9.17;65.93;101820.03;5039274;28;20065;-86
2022/02/22 08:21:58;;;;;;;0.10;0.10;;;;;;;9.24;66.29;101810.34;5040465;28;20033;-85
2022/02/22 08:24:25;;;;;;;0.40;0.40;;;;;;;9.26;65.97;101803.31;5040208;28;20061;-84
2022/02/22 08:26:54;;;;;;;0.10;0.10;;;;;;;9.19;65.84;101794.47;5047559;28;20033;-85
2022/02/22 08:29:20;;;;;;;0.10;0.10;;;;;;;9.29;65.56;101794.50;5041250;28;20045;-85
2022/02/22 08:31:47;;;;;;;0.30;0.30;;;;;;;9.35;65.24;101790.06;5040126;28;20045;-85
2022/02/22 08:34:13;;;;;;;0.20;0.20;;;;;;;9.38;65.51;101784.78;5036867;28;20052;-84
2022/02/22 08:36:39;;;;;;;0.10;0.10;;;;;;;9.43;65.59;101775.97;5036948;28;20040;-88
2022/02/22 08:39:06;;;;;;;0.00;0.00;;;;;;;9.39;65.67;101786.56;5020315;28;20488;-84
2022/02/22 08:41:34;;;;;;;0.00;0.00;;;;;;;9.51;65.53;101767.16;5043310;28;20104;-85
2022/02/22 08:44:01;;;;;;;0.00;0.00;;;;;;;9.59;64.88;101760.97;5034450;28;20752;-85
2022/02/22 08:46:28;;;;;;;0.00;0.00;;;;;;;9.58;65.18;101749.50;5031775;28;20385;-85
2022/02/22 08:48:54;;;;;;;0.00;0.00;;;;;;;9.76;64.73;101753.88;5035240;28;20029;-86
2022/02/22 08:51:20;;;;;;;2.47;2.28;;;;;;;9.82;64.85;101748.59;5035443;28;20093;-82
2022/02/22 08:53:46;;;;;;;0.03;0.03;;;;;;;9.74;64.95;101750.34;5034140;28;20032;-81
2022/02/22 08:56:13;;;;;;;0.00;0.00;;;;;;;9.90;64.21;101747.69;5034746;28;20087;-82
2022/02/22 08:58:40;;;;;;;0.10;0.10;;;;;;;9.84;64.24;101740.63;5020404;28;20068;-85
2022/02/22 09:01:07;;;;;;;0.20;0.20;;;;;;;9.97;64.02;101746.75;5035377;28;20021;-86
2022/02/22 09:03:34;;;;;;;0.10;0.10;;;;;;;9.90;63.94;101730.03;5034775;28;20021;-86
2022/02/22 09:06:00;;;;;;;0.10;0.10;;;;;;;10.03;63.65;101722.91;5034925;28;20045;-84
2022/02/22 09:08:27;;;;;;;1.52;0.47;;;;;;;10.07;63.48;101722.03;5033268;28;20029;-84
2022/02/22 09:10:54;;;;;;;0.00;0.00;;;;;;;10.07;63.43;101721.13;5036000;28;20026;-84
2022/02/22 09:13:21;;;;;;;0.10;0.10;;;;;;;10.19;63.40;101721.09;5035799;28;20034;-84
2022/02/22 09:15:49;;;;;;;1.10;0.43;;;;;;;9.99;63.15;101718.53;5031898;28;20026;-81
2022/02/22 09:18:16;;;;;;;0.10;0.10;;;;;;;9.92;62.97;101733.56;5019400;28;20385;-82
2022/02/22 09:20:42;;;;;;;1.17;1.10;;;;;;;9.90;62.69;101714.13;4999119;28;20034;-82
2022/02/22 09:23:09;;;;;;;0.08;0.08;;;;;;;9.97;62.79;101715.88;5020127;28;20543;-83
2022/02/22 09:25:35;;;;;;;0.38;0.38;;;;;;;9.79;62.64;101726.53;5033926;28;20112;-83
2022/02/22 09:28:06;;;;;;;0.10;0.10;;;;;;;9.97;61.93;101722.94;5034373;28;20484;-83
2022/02/22 09:30:34;;;;;;;0.55;0.55;;;;;;;10.03;62.24;101728.22;5033554;28;20432;-82
2022/02/22 09:33:01;;;;;;;0.10;0.10;;;;;;;10.14;61.77;101720.22;5033224;28;20037;-84
2022/02/22 09:35:28;;;;;;;0.57;0.57;;;;;;;10.16;62.00;101742.31;5031142;28;20195;-83
2022/02/22 09:37:56;;;;;;;0.10;0.10;;;;;;;10.28;61.42;101733.41;5034240;28;20104;-83
2022/02/22 09:40:23;;;;;;;0.00;0.00;;;;;;;10.26;60.99;101746.66;5033976;28;20456;-83
2022/02/22 09:42:50;;;;;;;0.10;0.10;;;;;;;10.35;60.61;101761.63;5033773;28;20030;-82
2022/02/22 09:45:17;;;;;;;0.10;0.10;;;;;;;10.41;60.57;101736.94;5032268;28;20037;-84
2022/02/22 09:47:44;;;;;;;0.15;0.15;;;;;;;10.34;60.32;101742.22;5032956;28;20025;-84
2022/02/22 09:50:14;;;;;;;0.68;0.68;;;;;;;10.40;60.71;101733.38;5033867;28;20079;-84
2022/02/22 09:52:40;;;;;;;0.65;0.65;;;;;;;10.37;60.30;101720.16;5036571;28;20041;-83
2022/02/22 09:55:08;;;;;;;0.10;0.10;;;;;;;10.43;60.33;101708.66;5019072;28;20043;-84
2022/02/22 09:57:35;;;;;;;0.10;0.10;;;;;;;10.39;60.55;101706.91;5016014;28;20044;-83
2022/02/22 10:00:04;;;;;;;1.30;0.80;;;;;;;10.42;60.50;101717.47;5034467;28;20518;-82
2022/02/22 10:02:37;;;;;;;0.30;0.22;;;;;;;10.53;60.50;101723.63;5033234;28;20053;-84
2022/02/22 10:05:22;;;;;;;1.15;1.15;;;;;;;10.43;60.74;101695.41;5033344;28;20037;-85
2022/02/22 10:07:56;;;;;;;0.10;0.10;;;;;;;10.54;60.59;101674.16;5037587;28;20380;-85
2022/02/22 10:13:24;;;;;;;1.65;1.23;;;;;;;10.45;61.36;101681.25;5072401;28;20426;-84
2022/02/22 10:15:50;;;;;;;0.43;0.43;;;;;;;10.47;61.71;101689.22;5059454;22;20684;-82
2022/02/22 10:18:17;;;;;;;0.08;0.08;;;;;;;10.35;62.59;101690.13;5049789;28;20037;-82
2022/02/22 10:20:46;;;;;;;0.10;0.10;;;;;;;10.08;64.15;101699.06;5049104;28;20472;-82
2022/02/22 10:23:12;;;;;;;0.10;0.10;;;;;;;10.11;64.80;101670.81;5048169;28;20534;-82
2022/02/22 10:25:39;;;;;;;0.20;0.20;;;;;;;10.11;65.57;101664.66;5037682;28;20033;-82
2022/02/22 10:28:06;;;;;;;2.33;2.20;;;;;;;10.02;65.27;101661.16;5037593;28;20036;-82
2022/02/22 10:36:04;;;;;;;0.10;0.10;;;;;;;9.91;67.79;101643.56;5062696;27;20415;-82
2022/02/22 10:38:34;;;;;;;0.30;0.30;;;;;;;9.72;68.85;101646.28;5053483;28;20044;-81
2022/02/22 10:41:14;;;;;;;0.10;0.10;;;;;;;9.93;67.75;101652.34;5065854;28;20067;-82
2022/02/22 10:43:51;;;;;;;0.10;0.10;;;;;;;9.89;68.37;101648.84;5065893;28;20029;-82
2022/02/22 10:46:26;;;;;;;0.10;0.10;;;;;;;9.90;68.45;101655.91;5058236;28;20440;-82
2022/02/22 10:49:03;;;;;;;2.47;2.28;;;;;;;9.92;68.57;101659.44;5056411;28;20035;-82
2022/02/22 10:51:48;;;;;;;1.85;1.75;;;;;;;9.92;68.62;101654.16;5053269;28;20526;-81
2022/02/22 10:57:00;;;;;;;0.10;0.10;;;;;;;9.83;69.48;101654.16;5073709;27;20496;-82
2022/02/22 10:59:26;;;;;;;1.83;1.73;;;;;;;9.83;69.28;101655.06;5070391;28;20125;-82
2022/02/22 11:01:54;;;;;;;0.20;0.20;;;;;;;9.72;70.03;101635.69;5063598;28;20040;-83
2022/02/22 11:04:20;;;;;;;1.35;1.25;;;;;;;9.88;69.58;101625.91;5051465;28;20045;-83
2022/02/22 11:06:46;;;;;;;0.10;0.10;;;;;;;9.89;70.18;101632.97;5049353;28;20045;-83
2022/02/22 11:09:17;;;;;;;0.50;0.50;;;;;;;10.07;69.52;101626.72;5051063;28;20052;-83
2022/02/22 11:11:50;;;;;;;1.38;1.27;;;;;;;10.11;69.03;101627.59;5050877;28;20041;-83
2022/02/22 11:14:34;;;;;;;0.10;0.10;;;;;;;10.21;69.41;101623.97;5069048;28;20033;-83
2022/02/22 11:17:13;;;;;;;0.20;0.20;;;;;;;10.14;69.42;101627.53;5052776;28;20025;-83
2022/02/22 11:19:40;;;;;;;6.30;0.85;;;;;;;10.18;69.71;101637.22;5050276;28;20033;-82
2022/02/22 11:24:57;;;;;;;0.10;0.10;;;;;;;10.15;70.54;101650.50;5075061;27;20430;-82
2022/02/22 11:27:42;;;;;;;0.20;0.20;;;;;;;10.40;69.99;101626.56;5042593;28;20033;-83
2022/02/22 11:30:12;;;;;;;0.50;0.50;;;;;;;10.39;70.19;101617.72;5045217;28;20032;-85
2022/02/22 11:32:42;;;;;;;0.15;0.15;;;;;;;10.54;70.17;101611.41;5050830;28;20072;-84
2022/02/22 11:35:11;;;;;;;0.10;0.10;;;;;;;10.61;70.51;101615.78;5050708;28;20029;-84
2022/02/22 11:37:37;;;;;;;0.47;0.47;;;;;;;10.58;70.50;101607.88;5050898;28;20030;-83
2022/02/22 11:40:06;;;;;;;0.10;0.10;;;;;;;10.82;70.26;101592.66;5050527;28;20438;-84
2022/02/22 11:42:33;;;;;;;0.47;0.47;;;;;;;10.89;70.18;101586.41;5050431;28;20064;-85
2022/02/22 11:47:42;;;;;;;0.10;0.10;;;;;;;10.89;70.45;101575.81;5090867;28;20063;-85